createdAt,value
2018-09-27T00:04:01.105Z,10.2
2018-09-27T00:09:01.136Z,10.6
2018-09-27T00:14:01.094Z,11.0
2018-09-27T00:19:06.103Z,11.8
2018-09-27T00:24:06.102Z,11.3
2018-09-27T00:29:06.167Z,11.1
2018-09-27T00:34:06.106Z,11.6
2018-09-27T00:39:06.107Z,11.0
2018-09-27T00:44:01.136Z,10.8
2018-09-27T00:54:01.124Z,11.2
2018-09-27T00:59:06.110Z,10.7
2018-09-27T01:04:01.131Z,10.6
2018-09-27T01:14:01.129Z,10.0
2018-09-27T01:19:01.134Z,9.8
2018-09-27T01:24:06.101Z,9.1
2018-09-27T01:29:01.139Z,9.7
2018-09-27T01:34:06.099Z,9.2
2018-09-27T01:39:06.111Z,9.3
2018-09-27T01:44:01.144Z,10.0
2018-09-27T01:49:01.093Z,10.9
2018-09-27T01:54:01.137Z,11.3
2018-09-27T02:04:01.101Z,11.7
2018-09-27T02:09:01.134Z,11.3
2018-09-27T02:14:06.111Z,11.4
2018-09-27T02:19:01.141Z,11.7
2018-09-27T02:24:01.138Z,12.6
2018-09-27T02:29:01.143Z,13.0
2018-09-27T02:35:01.126Z,13.2
2018-09-27T02:40:06.097Z,13.7
2018-09-27T02:45:01.122Z,13.6
2018-09-27T02:50:06.103Z,12.9
2018-09-27T02:55:06.111Z,12.4
2018-09-27T03:00:06.105Z,11.8
2018-09-27T03:05:01.101Z,11.9
2018-09-27T03:10:01.106Z,11.8
2018-09-27T03:15:01.142Z,12.6
2018-09-27T03:20:01.103Z,12.4
2018-09-27T03:25:01.103Z,12.5
2018-09-27T03:30:01.103Z,11.6
2018-09-27T03:35:01.105Z,10.9
2018-09-27T03:40:01.147Z,9.4
2018-09-27T03:45:01.088Z,9.8
2018-09-27T03:50:01.217Z,9.7
2018-09-27T03:55:01.092Z,9.6
2018-09-27T04:00:01.094Z,9.2
2018-09-27T04:10:01.103Z,8.8
2018-09-27T04:15:01.107Z,8.5
2018-09-27T04:20:01.102Z,8.4
2018-09-27T04:25:01.102Z,8.0
2018-09-27T04:30:01.184Z,7.9
2018-09-27T04:35:01.109Z,8.1
2018-09-27T04:45:01.114Z,7.7
2018-09-27T04:50:01.106Z,7.8
2018-09-27T04:55:01.104Z,7.7
2018-09-27T05:00:01.244Z,7.8
2018-09-27T05:05:01.093Z,7.6
2018-09-27T05:15:01.123Z,7.1
2018-09-27T05:20:01.098Z,7.0
2018-09-27T05:25:01.107Z,6.2
2018-09-27T05:30:01.105Z,6.6
2018-09-27T05:35:01.116Z,6.4
2018-09-27T05:40:01.091Z,6.7
2018-09-27T05:45:01.096Z,6.8
2018-09-27T05:55:01.105Z,6.2
2018-09-27T06:00:01.100Z,6.4
2018-09-27T06:05:01.118Z,6.2
2018-09-27T06:10:01.105Z,7.0
2018-09-27T06:15:01.105Z,7.3
2018-09-27T06:25:01.101Z,7.1
2018-09-27T06:30:01.110Z,7.4
2018-09-27T06:35:01.172Z,6.3
2018-09-27T06:40:01.204Z,5.8
2018-09-27T06:45:01.112Z,5.9
2018-09-27T06:50:01.109Z,6.1
2018-09-27T06:55:01.221Z,5.9
2018-09-27T07:00:01.098Z,6.6
2018-09-27T07:05:01.125Z,7.3
2018-09-27T07:10:01.171Z,8.2
2018-09-27T07:15:01.112Z,8.5
2018-09-27T07:20:01.106Z,9.0
2018-09-27T07:30:01.116Z,9.5
2018-09-27T07:36:01.099Z,9.0
2018-09-27T07:41:01.101Z,9.2
2018-09-27T07:46:01.105Z,10.1
2018-09-27T07:51:01.137Z,10.6
2018-09-27T07:56:06.111Z,10.7
2018-09-27T08:01:06.114Z,11.8
2018-09-27T08:06:06.113Z,12.6
2018-09-27T08:12:01.232Z,13.1
2018-09-27T08:17:01.197Z,13.2
2018-09-27T08:22:01.105Z,13.5
2018-09-27T08:27:01.107Z,13.7
2018-09-27T08:32:06.108Z,14.5
2018-09-27T08:37:01.133Z,14.4
2018-09-27T08:42:06.092Z,15.0
2018-09-27T08:47:01.127Z,15.5
2018-09-27T08:52:06.097Z,15.8
2018-09-27T08:57:01.126Z,15.6
2018-09-27T09:02:06.095Z,16.6
2018-09-27T09:07:01.130Z,17.4
2018-09-27T09:12:01.181Z,18.2
2018-09-27T09:17:01.332Z,19.6
2018-09-27T09:22:01.104Z,21.4
2018-09-27T09:28:06.096Z,22.9
2018-09-27T09:33:06.096Z,24.0
2018-09-27T09:38:06.101Z,25.2
2018-09-27T09:48:01.106Z,25.4
2018-09-27T09:53:01.110Z,24.6
2018-09-27T09:58:01.118Z,25.0
2018-09-27T10:03:01.133Z,25.3
2018-09-27T10:08:01.098Z,26.8
2018-09-27T10:13:01.100Z,28.6
2018-09-27T10:18:01.098Z,31.1
2018-09-27T10:23:01.101Z,32.0
2018-09-27T10:28:01.104Z,33.5
2018-09-27T10:39:01.122Z,33.0
2018-09-27T10:44:06.102Z,32.8
2018-09-27T10:49:01.096Z,33.0
2018-09-27T10:54:01.097Z,32.0
2018-09-27T10:59:01.099Z,32.1
2018-09-27T11:09:01.171Z,30.5
2018-09-27T11:14:01.101Z,28.8
2018-09-27T11:19:01.106Z,26.9
2018-09-27T11:25:01.096Z,25.5
2018-09-27T11:30:01.113Z,23.6
2018-09-27T11:35:01.097Z,23.0
2018-09-27T11:40:01.168Z,23.8
2018-09-27T11:45:01.106Z,27.0
2018-09-27T11:50:01.209Z,29.2
2018-09-27T11:55:01.167Z,32.7
2018-09-27T12:01:01.099Z,38.2
2018-09-27T12:06:01.090Z,42.4
2018-09-27T12:11:01.162Z,44.4
2018-09-27T12:16:01.092Z,47.1
2018-09-27T12:21:01.162Z,48.8
2018-09-27T12:26:01.168Z,47.8
2018-09-27T12:36:01.108Z,46.9
2018-09-27T12:41:01.172Z,44.4
2018-09-27T12:46:01.197Z,40.9
2018-09-27T12:51:01.166Z,39.1
2018-09-27T12:56:01.215Z,36.5
2018-09-27T13:01:01.326Z,34.4
2018-09-27T13:06:01.100Z,32.6
2018-09-27T13:11:01.093Z,31.3
2018-09-27T13:16:01.142Z,30.5
2018-09-27T13:21:01.104Z,30.2
2018-09-27T13:31:02.181Z,32.2
2018-09-27T13:36:01.155Z,33.0
2018-09-27T13:41:01.108Z,32.6
2018-09-27T13:46:01.105Z,31.4
2018-09-27T13:51:06.281Z,31.0
2018-09-27T13:56:01.105Z,29.3
2018-09-27T14:01:01.124Z,29.4
2018-09-27T14:11:01.087Z,30.0
2018-09-27T14:21:01.096Z,29.9
2018-09-27T14:26:01.206Z,29.5
2018-09-27T14:31:01.200Z,30.2
2018-09-27T14:36:01.096Z,29.7
2018-09-27T14:41:01.236Z,28.2
2018-09-27T14:46:01.104Z,28.1
2018-09-27T14:51:06.172Z,27.2
2018-09-27T14:56:01.085Z,25.4
2018-09-27T15:01:01.156Z,24.9
2018-09-27T15:06:01.089Z,24.5
2018-09-27T15:11:01.158Z,23.4
2018-09-27T15:16:01.092Z,23.1
2018-09-27T15:21:01.162Z,22.0
2018-09-27T15:26:01.106Z,21.1
2018-09-27T15:31:01.217Z,20.9
2018-09-27T15:36:01.114Z,19.8
2018-09-27T15:41:01.112Z,18.5
2018-09-27T15:47:01.106Z,18.1
2018-09-27T15:52:01.096Z,17.0
2018-09-27T15:57:01.098Z,15.6
2018-09-27T16:02:01.101Z,14.8
2018-09-27T16:07:01.103Z,15.5
2018-09-27T16:12:01.104Z,14.6
2018-09-27T16:17:01.106Z,14.3
2018-09-27T16:22:01.184Z,15.3
2018-09-27T16:27:01.097Z,15.9
2018-09-27T16:32:01.104Z,15.4
2018-09-27T16:37:01.100Z,17.0
2018-09-27T16:42:01.096Z,17.7
2018-09-27T16:47:01.098Z,16.9
2018-09-27T16:52:01.101Z,17.9
2018-09-27T16:57:01.105Z,18.1
2018-09-27T17:02:01.102Z,18.0
2018-09-27T17:07:01.107Z,19.5
2018-09-27T17:12:01.091Z,19.8
2018-09-27T17:17:01.093Z,19.4
2018-09-27T17:22:01.101Z,19.2
2018-09-27T17:27:01.099Z,18.8
2018-09-27T17:32:01.099Z,18.5
2018-09-27T17:37:01.098Z,19.2
2018-09-27T17:42:01.103Z,19.3
2018-09-27T17:47:06.106Z,19.1
2018-09-27T17:52:06.173Z,20.0
2018-09-27T17:57:01.097Z,18.0
2018-09-27T18:02:01.096Z,17.1
2018-09-27T18:07:06.095Z,16.3
2018-09-27T18:12:06.224Z,15.8
2018-09-27T18:17:06.172Z,15.1
2018-09-27T18:22:01.135Z,15.5
2018-09-27T18:27:06.104Z,16.2
2018-09-27T18:32:01.134Z,16.4
2018-09-27T18:37:01.123Z,17.2
2018-09-27T18:42:01.121Z,17.3
2018-09-27T18:47:06.100Z,18.1
2018-09-27T18:52:06.171Z,19.1
2018-09-27T18:57:06.101Z,20.7
2018-09-27T19:02:06.233Z,21.6
2018-09-27T19:07:06.129Z,22.9
2018-09-27T19:12:01.155Z,22.7
2018-09-27T19:17:01.231Z,22.9
2018-09-27T19:22:01.119Z,23.4
2018-09-27T19:27:01.143Z,23.3
2018-09-27T19:32:01.131Z,23.4
2018-09-27T19:37:01.138Z,24.6
2018-09-27T19:42:01.146Z,25.4
2018-09-27T19:47:01.151Z,25.1
2018-09-27T19:52:01.149Z,27.0
2018-09-27T20:02:01.166Z,28.4
2018-09-27T20:12:01.163Z,28.1
2018-09-27T20:17:02.214Z,25.4
2018-09-27T20:22:01.167Z,23.2
2018-09-27T20:27:01.091Z,19.1
2018-09-27T20:32:01.161Z,16.4
2018-09-27T20:37:01.091Z,14.2
2018-09-27T20:42:01.097Z,12.6
2018-09-27T20:47:01.101Z,11.9
2018-09-27T20:52:01.170Z,12.1
2018-09-27T20:57:01.092Z,11.8
2018-09-27T21:02:01.203Z,11.0
2018-09-27T21:07:01.099Z,12.2
2018-09-27T21:12:01.096Z,12.7
2018-09-27T21:17:01.112Z,12.2
2018-09-27T21:22:03.120Z,11.9
2018-09-27T21:27:01.121Z,12.4
2018-09-27T21:32:01.157Z,11.5
2018-09-27T21:37:01.100Z,10.6
2018-09-27T21:42:01.167Z,10.4
2018-09-27T21:52:01.238Z,9.8
2018-09-27T21:57:01.376Z,9.2
2018-09-27T22:02:01.116Z,9.3
2018-09-27T22:08:01.104Z,8.6
2018-09-27T22:13:01.099Z,7.1
2018-09-27T22:18:01.108Z,6.1
2018-09-27T22:23:01.110Z,5.0
2018-09-27T22:28:01.177Z,3.7
2018-09-27T22:33:01.230Z,2.8
2018-09-27T22:43:01.104Z,3.0
2018-09-27T22:48:01.108Z,3.7
2018-09-27T22:53:01.271Z,3.9
2018-09-27T22:58:02.068Z,4.2
2018-09-27T23:08:01.099Z,4.0
2018-09-27T23:13:01.102Z,3.3
2018-09-27T23:23:01.180Z,3.4
2018-09-27T23:28:01.137Z,3.3
2018-09-27T23:33:01.105Z,3.9
2018-09-27T23:43:01.095Z,4.2
2018-09-27T23:48:01.096Z,4.0
2018-09-27T23:53:06.098Z,4.2
2018-09-27T23:58:01.095Z,3.6
